Time;durP1;ratioP1;P1;durP2;ratioP2;P2;SDS_P1;SDS_P2;PMS_P1;PMS_P2;Temp;Humidity;BMP_temperature;BMP_pressure;BME280_temperature;BME280_humidity;BME280_pressure;Samples;Min_cycle;Max_cycle;Signal;HPM_P1;HPM_P2
2023/09/11 00:03:02;;;;;;;;;;;;;;;23.07;93.8584;101452.4;;;;-81
2023/09/11 00:08:02;;;;;;;;;;;;;;;23.04;93.6709;101457.2;;;;-82
2023/09/11 00:13:05;;;;;;;;;;;;;;;23.01;93.25781;101451.8;;;;-82
2023/09/11 00:18:04;;;;;;;;;;;;;;;22.98;93.06836;101453.2;;;;-80
2023/09/11 00:20:21;;;;;;;22.1;14.4;;;;;;;;;;;;;-81
2023/09/11 00:23:02;;;;;;;;;;;;;;;22.93;93.16113;101450;;;;-81
2023/09/11 00:28:02;;;;;;;;;;;;;;;22.88;93.23145;101444.9;;;;-83
2023/09/11 00:33:02;;;;;;;;;;;;;;;22.83;93.38965;101446.9;;;;-82
2023/09/11 00:38:02;;;;;;;;;;;;;;;22.78;93.57324;101443.3;;;;-82
2023/09/11 00:43:04;;;;;;;;;;;;;;;22.74;93.51855;101444.4;;;;-81
2023/09/11 00:48:03;;;;;;;;;;;;;;;22.7;93.21484;101434.5;;;;-81
2023/09/11 00:50:24;;;;;;;24.3;15.6;;;;;;;;;;;;;-82
2023/09/11 00:53:04;;;;;;;;;;;;;;;22.71;92.08301;101431.3;;;;-82
2023/09/11 00:58:02;;;;;;;;;;;;;;;22.73;91.16992;101428;;;;-83
2023/09/11 01:03:05;;;;;;;;;;;;;;;22.72;90.69238;101420.8;;;;-82
2023/09/11 01:08:03;;;;;;;;;;;;;;;22.71;90.03223;101412.2;;;;-82
2023/09/11 01:13:02;;;;;;;;;;;;;;;22.69;89.48242;101408.4;;;;-82
2023/09/11 01:18:07;;;;;;;;;;;;;;;22.67;89.28613;101406.4;;;;-80
2023/09/11 01:20:52;;;;;;;29.3;16.3;;;;;;;;;;;;;-82
2023/09/11 01:23:18;;;;;;;;;;;;;;;22.67;88.99121;101405.6;;;;-80
2023/09/11 01:28:48;;;;;;;;;;;;;;;22.63;88.92773;101400.8;;;;-83
2023/09/11 01:33:20;;;;;;;;;;;;;;;22.65;88.89648;101403.6;;;;-82
2023/09/11 01:48:06;;;;;;;;;;;;;;;22.61;89.00098;101394.4;;;;-83
2023/09/11 01:50:50;;;;;;;31.1;17.1;;;;;;;;;;;;;-82
2023/09/11 01:58:10;;;;;;;;;;;;;;;22.55;89.94336;101381.2;;;;-81
2023/09/11 02:03:12;;;;;;;;;;;;;;;22.52;90.23242;101379.3;;;;-82
2023/09/11 02:08:21;;;;;;;;;;;;;;;;;;;;;
2023/09/11 02:13:02;;;;;;;;;;;;;;;22.45;90.65039;101367;;;;-83
2023/09/11 02:18:19;;;;;;;;;;;;;;;22.39;91.125;101359.2;;;;-82
2023/09/11 02:20:42;;;;;;;33.4;20;;;;;;;;;;;;;-82
2023/09/11 02:23:18;;;;;;;;;;;;;;;22.34;91.43066;101353.9;;;;-82
2023/09/11 02:28:10;;;;;;;;;;;;;;;22.31;91.73145;101351.4;;;;-81
2023/09/11 02:33:08;;;;;;;;;;;;;;;22.26;92.04883;101349.2;;;;-81
2023/09/11 02:38:03;;;;;;;;;;;;;;;22.23;92.31445;101350.4;;;;-83
2023/09/11 02:43:03;;;;;;;;;;;;;;;22.17;92.83496;101346.9;;;;-81
2023/09/11 02:48:02;;;;;;;;;;;;;;;22.13;92.97363;101347.2;;;;-82
2023/09/11 02:50:40;;;;;;;32.1;20.9;;;;;;;;;;;;;-81
2023/09/11 02:53:23;;;;;;;;;;;;;;;;;;;;;
2023/09/11 02:58:16;;;;;;;;;;;;;;;;;;;;;
2023/09/11 03:03:10;;;;;;;;;;;;;;;21.82;95.64551;101317.2;;;;-82
2023/09/11 03:08:12;;;;;;;;;;;;;;;21.85;96.02344;101324.6;;;;-82
2023/09/11 03:13:12;;;;;;;;;;;;;;;21.79;96.35156;101321.3;;;;-83
2023/09/11 03:18:06;;;;;;;;;;;;;;;21.77;96.32227;101314.6;;;;-81
2023/09/11 03:20:49;;;;;;;37.4;23;;;;;;;;;;;;;-81
2023/09/11 03:23:24;;;;;;;;;;;;;;;21.74;96.44141;101305.6;;;;-83
2023/09/11 03:28:11;;;;;;;;;;;;;;;21.66;97.03516;101297.9;;;;-82
2023/09/11 03:38:11;;;;;;;;;;;;;;;21.56;97.9707;101302.5;;;;-79
2023/09/11 03:43:07;;;;;;;;;;;;;;;21.5;98.42188;101299.9;;;;-80
2023/09/11 03:48:13;;;;;;;;;;;;;;;21.42;98.80957;101295.1;;;;-82
2023/09/11 03:51:02;;;;;;;39.2;25.7;;;;;;;;;;;;;-83
2023/09/11 03:53:09;;;;;;;;;;;;;;;21.39;99.16504;101291.7;;;;-81
2023/09/11 03:58:16;;;;;;;;;;;;;;;21.32;99.65625;101280.9;;;;-82
2023/09/11 04:03:19;;;;;;;;;;;;;;;21.27;99.94824;101276.1;;;;-82
2023/09/11 04:08:01;;;;;;;;;;;;;;;21.19;100;101280.3;;;;-82
2023/09/11 04:13:15;;;;;;;;;;;;;;;21.13;100;101280.6;;;;-82
2023/09/11 04:18:05;;;;;;;;;;;;;;;21.03;100;101267.8;;;;-82
2023/09/11 04:21:06;;;;;;;40.4;26.5;;;;;;;;;;;;;-81
2023/09/11 04:23:09;;;;;;;;;;;;;;;20.97;100;101258.4;;;;-83
2023/09/11 04:28:12;;;;;;;;;;;;;;;20.9;100;101262.5;;;;-82
2023/09/11 04:33:09;;;;;;;;;;;;;;;20.87;100;101263.5;;;;-81
2023/09/11 04:38:25;;;;;;;;;;;;;;;20.84;100;101249.9;;;;-81
2023/09/11 04:43:06;;;;;;;;;;;;;;;20.82;100;101244.2;;;;-82
2023/09/11 04:51:02;;;;;;;45.4;31.2;;;;;;;;;;;;;-82
2023/09/11 04:53:11;;;;;;;;;;;;;;;20.73;100;101236.4;;;;-82
2023/09/11 05:03:07;;;;;;;;;;;;;;;20.7;100;101244.3;;;;-81
2023/09/11 05:08:02;;;;;;;;;;;;;;;20.71;100;101246.5;;;;-81
2023/09/11 05:13:16;;;;;;;;;;;;;;;20.73;100;101248.3;;;;-82
2023/09/11 05:18:02;;;;;;;;;;;;;;;20.74;100;101258.8;;;;-80
2023/09/11 05:21:12;;;;;;;48.7;31;;;;;;;;;;;;;-81
2023/09/11 05:28:03;;;;;;;;;;;;;;;20.78;100;101268.6;;;;-82
2023/09/11 05:33:04;;;;;;;;;;;;;;;20.81;100;101265;;;;-80
2023/09/11 05:38:07;;;;;;;;;;;;;;;20.86;100;101257.7;;;;-81
2023/09/11 05:43:05;;;;;;;;;;;;;;;20.92;100;101261.1;;;;-84
2023/09/11 05:51:02;;;;;;;33.1;22.8;;;;;;;;;;;;;-82
2023/09/11 05:53:11;;;;;;;;;;;;;;;20.93;99.60547;101273.8;;;;-81
2023/09/11 05:58:09;;;;;;;;;;;;;;;20.97;98.75684;101277.9;;;;-82
2023/09/11 06:03:00;;;;;;;;;;;;;;;21.02;97.60645;101283.7;;;;-83
2023/09/11 06:13:00;;;;;;;;;;;;;;;21.34;94.57324;101289.9;;;;-83
2023/09/11 06:17:57;;;;;;;;;;;;;;;21.56;93.13867;101297.2;;;;-82
2023/09/11 06:21:03;;;;;;;29;18.7;;;;;;;;;;;;;-81
2023/09/11 06:22:55;;;;;;;;;;;;;;;21.81;91.98145;101299.9;;;;-81
2023/09/11 06:27:56;;;;;;;;;;;;;;;21.75;92.06836;101304.8;;;;-80
2023/09/11 06:32:58;;;;;;;;;;;;;;;21.81;91.59473;101303.4;;;;-82
2023/09/11 06:37:57;;;;;;;;;;;;;;;21.87;91.59473;101301;;;;-82
2023/09/11 06:42:58;;;;;;;;;;;;;;;21.83;92.25684;101303.9;;;;-82
2023/09/11 06:47:55;;;;;;;;;;;;;;;21.79;93.38965;101307;;;;-81
2023/09/11 06:51:22;;;;;;;34.5;20.3;;;;;;;;;;;;;-83
2023/09/11 06:58:08;;;;;;;;;;;;;;;22.6;90.33984;101312.3;;;;-82
2023/09/11 07:03:02;;;;;;;;;;;;;;;22.97;87.82422;101307.2;;;;-81
2023/09/11 07:08:11;;;;;;;;;;;;;;;23.2;87.31348;101300.9;;;;-83
2023/09/11 07:13:03;;;;;;;;;;;;;;;23.41;86.44434;101304.6;;;;-85
2023/09/11 07:18:25;;;;;;;;;;;;;;;23.55;85.9248;101295.8;;;;-82
2023/09/11 07:21:10;;;;;;;35.6;19.7;;;;;;;;;;;;;-84
2023/09/11 07:47:17;;;;;;;;;;;;;;;24.24;80.35254;101322.2;;;;-86
2023/09/11 07:51:26;;;;;;;27.7;16.3;;;;;;;;;;;;;-85
2023/09/11 07:52:20;;;;;;;;;;;;;;;24.42;79.64258;101320.1;;;;-84
2023/09/11 07:57:19;;;;;;;;;;;;;;;24.59;79.50195;101322;;;;-86
2023/09/11 08:02:22;;;;;;;;;;;;;;;24.78;76.4707;101328.2;;;;-86
2023/09/11 08:07:14;;;;;;;;;;;;;;;25.02;75.62891;101339.8;;;;-87
2023/09/11 08:12:24;;;;;;;;;;;;;;;25.22;74.03711;101342.9;;;;-88
2023/09/11 08:17:18;;;;;;;;;;;;;;;25.48;71.93359;101341.4;;;;-87
2023/09/11 08:22:19;;;;;;;;;;;;;;;25.62;70.46289;101337.4;;;;-84
2023/09/11 08:27:25;;;;;;;;;;;;;;;25.72;69.57129;101339.5;;;;-87
2023/09/11 08:42:25;;;;;;;;;;;;;;;26.1;65.85645;101343.9;;;;-86
2023/09/11 08:47:28;;;;;;;;;;;;;;;26.16;65.7959;101351.8;;;;-86
2023/09/11 08:51:45;;;;;;;17.3;7.9;;;;;;;;;;;;;-86
2023/09/11 09:13:15;;;;;;;;;;;;;;;27.16;61.94629;101358.4;;;;-87
2023/09/11 09:33:05;;;;;;;;;;;;;;;28.04;59.21973;101356.6;;;;-88
2023/09/11 09:43:03;;;;;;;;;;;;;;;28.2;58.21973;101336.3;;;;-84
2023/09/11 09:48:31;;;;;;;;;;;;;;;28.48;57.41895;101340.9;;;;-87
2023/09/11 09:57:38;;;;;;;;;;;;;;;28.6;55.48535;101351;;;;-85
2023/09/11 10:05:20;;;;;;;;;;;;;;;28.49;55.4375;101362.6;;;;-86
2023/09/11 10:10:40;;;;;;;;;;;;;;;28.6;56.55273;101355;;;;-87
2023/09/11 10:15:24;;;;;;;;;;;;;;;;;;;;;
2023/09/11 10:20:32;;;;;;;;;;;;;;;28.64;55.23438;101349.7;;;;-86
2023/09/11 10:25:31;;;;;;;;;;;;;;;28.74;55.02734;101351.8;;;;-85
2023/09/11 10:30:43;;;;;;;;;;;;;;;;;;;;;
2023/09/11 10:35:27;;;;;;;;;;;;;;;29;56.37109;101345.4;;;;-85
2023/09/11 10:45:25;;;;;;;;;;;;;;;28.95;54.79395;101358;;;;-86
2023/09/11 10:50:22;;;;;;;;;;;;;;;28.8;57.07813;101364.4;;;;-86
2023/09/11 10:51:53;;;;;;;15.9;6.5;;;;;;;;;;;;;-86
2023/09/11 10:55:12;;;;;;;;;;;;;;;28.93;56.44336;101363.5;;;;-84
2023/09/11 11:00:38;;;;;;;;;;;;;;;;;;;;;
2023/09/11 11:05:28;;;;;;;;;;;;;;;28.91;56.5332;101346.5;;;;-85
2023/09/11 11:10:16;;;;;;;;;;;;;;;29.11;56.32715;101358;;;;-86
2023/09/11 11:15:36;;;;;;;;;;;;;;;28.64;56.19922;101347.3;;;;-87
2023/09/11 11:20:20;;;;;;;;;;;;;;;28.75;56.79199;101352.7;;;;-87
2023/09/11 11:21:55;;;;;;;15.1;8.9;;;;;;;;;;;;;-85
2023/09/11 11:34:44;;;;;;;;;;;;;;;28.87;56.49316;101369.3;;;;-89
2023/09/11 11:39:44;;;;;;;;;;;;;;;28.28;58.84473;101378.9;;;;-88
2023/09/11 11:44:45;;;;;;;;;;;;;;;;;;;;;
2023/09/11 11:49:46;;;;;;;;;;;;;;;28.7;57.36621;101381.9;;;;-85
2023/09/11 11:52:06;;;;;;;22;14.2;;;;;;;;;;;;;-88
2023/09/11 11:54:36;;;;;;;;;;;;;;;28.52;58.62012;101382.3;;;;-85
2023/09/11 12:04:42;;;;;;;;;;;;;;;28.37;58.68262;101392.8;;;;-86
2023/09/11 12:44:42;;;;;;;;;;;;;;;26.07;65.95605;101429.3;;;;-86
2023/09/11 12:49:49;;;;;;;;;;;;;;;26.04;66.38867;101430.3;;;;-86
2023/09/11 12:54:56;;;;;;;;;;;;;;;;;;;;;
2023/09/11 13:11:31;;;;;;;;;;;;;;;25.1;71.33496;101427.6;;;;-86
2023/09/11 13:41:22;;;;;;;;;;;;;;;24.12;73.81055;101408.9;;;;-82
2023/09/11 13:46:24;;;;;;;;;;;;;;;24.31;73.91113;101417.1;;;;-82
2023/09/11 13:51:27;;;;;;;;;;;;;;;24.28;73.46973;101425.1;;;;-81
2023/09/11 13:52:15;;;;;;;44.9;28.1;;;;;;;;;;;;;-82
2023/09/11 13:56:24;;;;;;;;;;;;;;;24.28;72.60059;101431.2;;;;-81
2023/09/11 14:01:43;;;;;;;;;;;;;;;24.12;72.99707;101425.9;;;;-84
2023/09/11 14:06:27;;;;;;;;;;;;;;;24.01;73.63281;101419.2;;;;-82
2023/09/11 14:11:23;;;;;;;;;;;;;;;24.25;73.23828;101414.3;;;;-83
2023/09/11 14:16:22;;;;;;;;;;;;;;;24.03;74.09277;101418.9;;;;-81
2023/09/11 14:21:22;;;;;;;;;;;;;;;24.09;74.47949;101431.7;;;;-81
2023/09/11 14:22:16;;;;;;;44.3;27;;;;;;;;;;;;;-82
2023/09/11 14:26:23;;;;;;;;;;;;;;;23.79;73.84668;101429.3;;;;-80
2023/09/11 14:31:23;;;;;;;;;;;;;;;23.75;73.75;101434.7;;;;-83
2023/09/11 14:36:25;;;;;;;;;;;;;;;24.06;73.66309;101436.1;;;;-81
2023/09/11 14:41:27;;;;;;;;;;;;;;;24.21;71.18164;101438.4;;;;-82
2023/09/11 14:46:22;;;;;;;;;;;;;;;24.16;70.73926;101435.8;;;;-83
2023/09/11 14:51:23;;;;;;;;;;;;;;;24.5;70.33398;101430.9;;;;-82
2023/09/11 14:52:21;;;;;;;29;17.6;;;;;;;;;;;;;-81
2023/09/11 14:56:32;;;;;;;;;;;;;;;24.95;69.08594;101423.5;;;;-82
2023/09/11 15:06:26;;;;;;;;;;;;;;;24.61;67.39355;101421.7;;;;-80
2023/09/11 15:11:24;;;;;;;;;;;;;;;24.92;67.18945;101420;;;;-81
2023/09/11 15:16:26;;;;;;;;;;;;;;;24.61;67.08398;101415.9;;;;-82
2023/09/11 15:21:23;;;;;;;;;;;;;;;24.77;66.91211;101416.2;;;;-80
2023/09/11 15:22:25;;;;;;;22.2;13.3;;;;;;;;;;;;;-83
2023/09/11 15:26:24;;;;;;;;;;;;;;;24.63;67.45508;101413.4;;;;-81
2023/09/11 15:31:23;;;;;;;;;;;;;;;24.63;67.89063;101413.7;;;;-81
2023/09/11 15:36:24;;;;;;;;;;;;;;;24.77;68.05078;101419.9;;;;-82
2023/09/11 15:41:24;;;;;;;;;;;;;;;24.63;68.47559;101426;;;;-81
2023/09/11 15:46:23;;;;;;;;;;;;;;;24.69;68.49512;101418.8;;;;-83
2023/09/11 15:51:22;;;;;;;;;;;;;;;24.68;67.51953;101408.6;;;;-82
2023/09/11 15:52:31;;;;;;;19.5;12.6;;;;;;;;;;;;;-82
2023/09/11 15:56:28;;;;;;;;;;;;;;;24.56;67.87988;101395.5;;;;-82
2023/09/11 16:01:23;;;;;;;;;;;;;;;24.39;68.13086;101393.6;;;;-80
2023/09/11 16:06:22;;;;;;;;;;;;;;;24.32;68.77148;101411.7;;;;-80
2023/09/11 16:11:23;;;;;;;;;;;;;;;23.91;70.4834;101416.8;;;;-82
2023/09/11 16:16:23;;;;;;;;;;;;;;;23.8;71.57422;101412;;;;-83
2023/09/11 16:21:22;;;;;;;;;;;;;;;23.74;71.64453;101414.9;;;;-82
2023/09/11 16:22:36;;;;;;;22.9;13.9;;;;;;;;;;;;;-83
2023/09/11 16:26:25;;;;;;;;;;;;;;;23.58;72.58105;101401.2;;;;-83
2023/09/11 16:31:22;;;;;;;;;;;;;;;23.49;72.3252;101384.8;;;;-83
2023/09/11 16:36:23;;;;;;;;;;;;;;;23.43;73.73047;101380.2;;;;-80
2023/09/11 16:41:22;;;;;;;;;;;;;;;23.32;73.23438;101368.8;;;;-81
2023/09/11 16:46:25;;;;;;;;;;;;;;;23.13;73.99219;101354;;;;-81
2023/09/11 16:51:22;;;;;;;;;;;;;;;23.08;74.7002;101363.8;;;;-80
2023/09/11 16:52:37;;;;;;;19.4;13.7;;;;;;;;;;;;;-80
2023/09/11 16:56:23;;;;;;;;;;;;;;;23.14;74.64258;101354.1;;;;-81
2023/09/11 17:01:22;;;;;;;;;;;;;;;23.18;74.08984;101332.9;;;;-81
2023/09/11 17:45:34;;;;;;;;;;;;;;;21.79;82.08594;101389.7;;;;-87
2023/09/11 17:50:34;;;;;;;;;;;;;;;21.5;84.53613;101388;;;;-87
2023/09/11 17:52:59;;;;;;;;;;;;;;;;;;;;;
2023/09/11 17:55:37;;;;;;;;;;;;;;;21.6;84.1582;101396.4;;;;-88
2023/09/11 18:00:39;;;;;;;;;;;;;;;21.67;82.89063;101405.6;;;;-86
2023/09/11 18:05:49;;;;;;;;;;;;;;;21.58;83.13672;101410;;;;-87
2023/09/11 18:10:54;;;;;;;;;;;;;;;21.52;83.73633;101428.8;;;;-88
2023/09/11 18:20:44;;;;;;;;;;;;;;;21.53;87.44238;101430.1;;;;-86
2023/09/11 18:22:50;;;;;;;35.8;22.3;;;;;;;;;;;;;-85
2023/09/11 18:25:41;;;;;;;;;;;;;;;21.17;89.375;101422;;;;-85
2023/09/11 18:30:30;;;;;;;;;;;;;;;21.15;89.78711;101419.8;;;;-86
2023/09/11 18:35:32;;;;;;;;;;;;;;;21.2;89.51367;101419.5;;;;-85
2023/09/11 18:40:47;;;;;;;;;;;;;;;21.19;89.25391;101419.2;;;;-84
2023/09/11 18:45:32;;;;;;;;;;;;;;;21.03;90.0127;101416.3;;;;-86
2023/09/11 18:50:39;;;;;;;;;;;;;;;20.94;89.52148;101409.4;;;;-85
2023/09/11 18:52:59;;;;;;;30;19.1;;;;;;;;;;;;;-83
2023/09/11 18:55:42;;;;;;;;;;;;;;;20.9;89.71582;101408.3;;;;-86
2023/09/11 19:00:33;;;;;;;;;;;;;;;20.89;89.75879;101416.3;;;;-86
2023/09/11 19:05:30;;;;;;;;;;;;;;;20.73;90.56055;101424.4;;;;-84
2023/09/11 19:10:33;;;;;;;;;;;;;;;20.54;91.63086;101427.4;;;;-86
2023/09/11 19:18:23;;;;;;;;;;;;;;;20.38;92.92578;101432.3;;;;-81
2023/09/11 19:22:56;;;;;;;36.8;22.7;;;;;;;;;;;;;-79
2023/09/11 19:23:23;;;;;;;;;;;;;;;20.31;93.18555;101423.9;;;;-81
2023/09/11 19:28:23;;;;;;;;;;;;;;;20.28;93.34473;101430.5;;;;-79
2023/09/11 19:33:23;;;;;;;;;;;;;;;20.08;94.8252;101433.4;;;;-80
2023/09/11 19:38:23;;;;;;;;;;;;;;;20.1;94.85156;101436.4;;;;-79
2023/09/11 19:43:23;;;;;;;;;;;;;;;20.09;94.47852;101427.1;;;;-80
2023/09/11 19:48:23;;;;;;;;;;;;;;;19.89;96.32617;101425.3;;;;-80
2023/09/11 19:52:58;;;;;;;36.4;21.9;;;;;;;;;;;;;-78
2023/09/11 19:53:23;;;;;;;;;;;;;;;19.89;95.61719;101419.6;;;;-79
2023/09/11 19:58:25;;;;;;;;;;;;;;;19.84;97.00098;101438.6;;;;-80
2023/09/11 20:03:24;;;;;;;;;;;;;;;19.85;96.92578;101439.5;;;;-79
2023/09/11 20:08:27;;;;;;;;;;;;;;;19.96;96.17285;101433.9;;;;-78
2023/09/11 20:13:26;;;;;;;;;;;;;;;20.09;95.16504;101428.8;;;;-79
2023/09/11 20:18:23;;;;;;;;;;;;;;;20.18;93.88672;101428.3;;;;-77
2023/09/11 20:23:02;;;;;;;33.5;21.5;;;;;;;;;;;;;-79
2023/09/11 20:23:23;;;;;;;;;;;;;;;20.28;93.58301;101445.6;;;;-81
2023/09/11 20:28:22;;;;;;;;;;;;;;;20.19;94.94922;101458.2;;;;-79
2023/09/11 20:33:24;;;;;;;;;;;;;;;20.11;95.93262;101443;;;;-79
2023/09/11 20:38:26;;;;;;;;;;;;;;;20.22;94.82031;101431.1;;;;-81
2023/09/11 20:43:23;;;;;;;;;;;;;;;20.21;95.15625;101425.5;;;;-81
2023/09/11 20:48:39;;;;;;;;;;;;;;;20.17;96.08301;101420;;;;-81
2023/09/11 20:53:33;;;;;;;45.4;25.7;;;;;;;;;;;;;-81
2023/09/11 21:03:36;;;;;;;;;;;;;;;19.94;99.42773;101443.5;;;;-82
2023/09/11 21:13:35;;;;;;;;;;;;;;;19.71;100;101423.1;;;;-81
2023/09/11 21:23:24;;;;;;;51.1;29.9;;;;;;;;;;;;;-82
2023/09/11 21:26:23;;;;;;;;;;;;;;;19.78;100;101427.4;;;;-81
2023/09/11 21:36:21;;;;;;;;;;;;;;;19.83;100;101425.5;;;;-82
2023/09/11 21:46:37;;;;;;;;;;;;;;;19.76;100;101415.2;;;;-81
2023/09/11 21:51:20;;;;;;;;;;;;;;;19.82;100;101410.8;;;;-79
2023/09/11 21:53:25;;;;;;;60.3;32;;;;;;;;;;;;;-80
2023/09/11 22:01:23;;;;;;;;;;;;;;;19.69;100;101434;;;;-79
2023/09/11 22:06:21;;;;;;;;;;;;;;;19.63;100;101440.1;;;;-80
2023/09/11 22:11:22;;;;;;;;;;;;;;;19.66;100;101453.2;;;;-81
2023/09/11 22:16:17;;;;;;;;;;;;;;;19.62;100;101444.3;;;;-80
2023/09/11 22:21:18;;;;;;;;;;;;;;;19.53;100;101427.9;;;;-77
2023/09/11 22:23:24;;;;;;;63.3;33.4;;;;;;;;;;;;;-81
2023/09/11 22:26:26;;;;;;;;;;;;;;;19.46;100;101429.2;;;;-79
2023/09/11 22:31:17;;;;;;;;;;;;;;;19.41;100;101417.1;;;;-79
2023/09/11 22:36:17;;;;;;;;;;;;;;;19.34;100;101409.3;;;;-81
2023/09/11 22:41:18;;;;;;;;;;;;;;;19.3;100;101412.3;;;;-79
2023/09/11 22:46:28;;;;;;;;;;;;;;;19.24;100;101413.1;;;;-80
2023/09/11 22:51:17;;;;;;;;;;;;;;;19.21;100;101407.2;;;;-80
2023/09/11 22:53:18;;;;;;;73.3;36.2;;;;;;;;;;;;;-79
2023/09/11 22:56:23;;;;;;;;;;;;;;;19.23;100;101408;;;;-80
2023/09/11 23:01:30;;;;;;;;;;;;;;;19.19;100;101414.4;;;;-81
2023/09/11 23:19:53;;;;;;;;;;;;;;;18.93;100;101403.5;;;;-80
2023/09/11 23:23:45;;;;;;;79.5;36.7;;;;;;;;;;;;;-80
2023/09/11 23:24:47;;;;;;;;;;;;;;;18.92;100;101400.7;;;;-78
2023/09/11 23:29:45;;;;;;;;;;;;;;;18.92;100;101396.7;;;;-78
2023/09/11 23:34:41;;;;;;;;;;;;;;;18.91;100;101401.5;;;;-79
2023/09/11 23:39:44;;;;;;;;;;;;;;;18.89;100;101398.3;;;;-79
2023/09/11 23:45:01;;;;;;;;;;;;;;;18.87;100;101394.8;;;;-80
2023/09/11 23:50:10;;;;;;;;;;;;;;;;;;;;;
2023/09/11 23:54:41;;;;;;;;;;;;;;;18.81;100;101395.8;;;;-79
